createdAt,value
2022-08-14T00:00:23.537Z,1010.36
2022-08-14T00:01:24.081Z,1010.34
2022-08-14T00:02:24.449Z,1010.32
2022-08-14T00:03:29.490Z,1010.35
2022-08-14T00:04:34.371Z,1010.34
2022-08-14T00:05:23.565Z,1010.36
2022-08-14T00:06:28.484Z,1010.36
2022-08-14T00:07:23.580Z,1010.39
2022-08-14T00:08:44.798Z,1010.40
2022-08-14T00:09:23.588Z,1010.38
2022-08-14T00:10:52.869Z,1010.44
2022-08-14T00:11:23.594Z,1010.44
2022-08-14T00:12:24.730Z,1010.44
2022-08-14T00:13:23.608Z,1010.45
2022-08-14T00:14:23.627Z,1010.45
2022-08-14T00:15:23.599Z,1010.42
2022-08-14T00:16:40.864Z,1010.37
2022-08-14T00:17:23.651Z,1010.38
2022-08-14T00:18:30.855Z,1010.38
2022-08-14T00:19:23.624Z,1010.38
2022-08-14T00:20:30.957Z,1010.39
2022-08-14T00:21:28.249Z,1010.39
2022-08-14T00:22:56.800Z,1010.36
2022-08-14T00:23:23.625Z,1010.39
2022-08-14T00:24:29.091Z,1010.42
2022-08-14T00:25:23.632Z,1010.41
2022-08-14T00:26:23.636Z,1010.41
2022-08-14T00:27:23.635Z,1010.39
2022-08-14T00:28:23.646Z,1010.40
2022-08-14T00:29:25.250Z,1010.38
2022-08-14T00:30:23.652Z,1010.37
2022-08-14T00:31:35.135Z,1010.35
2022-08-14T00:32:51.049Z,1010.37
2022-08-14T00:33:23.658Z,1010.34
2022-08-14T00:34:36.275Z,1010.38
2022-08-14T00:36:34.027Z,1010.39
2022-08-14T00:36:35.888Z,1010.34
2022-08-14T00:37:23.688Z,1010.34
2022-08-14T00:38:23.693Z,1010.33
2022-08-14T00:39:23.760Z,1010.36
2022-08-14T00:40:32.881Z,1010.33
2022-08-14T00:41:23.712Z,1010.30
2022-08-14T00:43:02.950Z,1010.31
2022-08-14T00:43:23.719Z,1010.27
2022-08-14T00:44:31.850Z,1010.26
2022-08-14T00:45:23.719Z,1010.25
2022-08-14T00:46:32.131Z,1010.26
2022-08-14T00:47:23.744Z,1010.26
2022-08-14T00:48:34.424Z,1010.24
2022-08-14T00:49:23.729Z,1010.23
2022-08-14T00:50:23.718Z,1010.19
2022-08-14T00:51:23.769Z,1010.24
2022-08-14T00:52:23.735Z,1010.22
2022-08-14T00:53:23.738Z,1010.20
2022-08-14T00:54:23.734Z,1010.18
2022-08-14T00:55:23.742Z,1010.18
2022-08-14T00:56:23.774Z,1010.22
2022-08-14T00:57:23.742Z,1010.19
2022-08-14T00:58:27.834Z,1010.23
2022-08-14T00:59:23.754Z,1010.16
2022-08-14T01:00:37.432Z,1010.19
2022-08-14T01:01:23.861Z,1010.20
2022-08-14T01:02:23.770Z,1010.16
2022-08-14T01:03:23.777Z,1010.16
2022-08-14T01:04:38.281Z,1010.13
2022-08-14T01:05:23.790Z,1010.11
2022-08-14T01:06:23.785Z,1010.08
2022-08-14T01:07:23.775Z,1010.09
2022-08-14T01:08:58.210Z,1010.07
2022-08-14T01:09:23.798Z,1010.10
2022-08-14T01:10:23.798Z,1010.08
2022-08-14T01:11:23.813Z,1010.07
2022-08-14T01:12:27.193Z,1010.07
2022-08-14T01:13:23.809Z,1010.07
2022-08-14T01:14:28.169Z,1010.04
2022-08-14T01:15:31.747Z,1010.11
2022-08-14T01:16:27.917Z,1010.05
2022-08-14T01:17:23.826Z,1010.03
2022-08-14T01:18:23.837Z,1010.06
2022-08-14T01:19:23.847Z,1010.09
2022-08-14T01:20:27.218Z,1010.05
2022-08-14T01:21:23.838Z,1010.04
2022-08-14T01:22:26.897Z,1010.03
2022-08-14T01:23:23.851Z,1010.04
2022-08-14T01:24:30.973Z,1010.00
2022-08-14T01:25:23.844Z,1010.01
2022-08-14T01:26:35.789Z,1010.00
2022-08-14T01:27:24.275Z,1010.04
2022-08-14T01:28:47.231Z,1010.00
2022-08-14T01:29:42.109Z,1010.03
2022-08-14T01:30:23.865Z,1010.02
2022-08-14T01:31:23.869Z,1010.02
2022-08-14T01:32:23.880Z,1010.02
2022-08-14T01:33:23.890Z,1010.04
2022-08-14T01:35:20.850Z,1010.07
2022-08-14T01:36:03.588Z,1010.02
2022-08-14T01:36:23.924Z,1010.03
2022-08-14T01:37:23.898Z,1010.02
2022-08-14T01:38:23.887Z,1010.04
2022-08-14T01:39:23.966Z,1010.01
2022-08-14T01:40:25.631Z,1010.00
2022-08-14T01:41:29.887Z,1010.01
2022-08-14T01:42:31.946Z,1010.02
2022-08-14T01:43:26.578Z,1010.02
2022-08-14T01:44:31.344Z,1010.04
2022-08-14T01:45:25.584Z,1010.00
2022-08-14T01:46:24.781Z,1010.03
2022-08-14T01:47:23.923Z,1010.00
2022-08-14T01:48:23.947Z,1010.01
2022-08-14T01:49:23.929Z,1010.03
2022-08-14T01:50:26.654Z,1010.01
2022-08-14T01:51:23.927Z,1010.03
2022-08-14T01:52:58.066Z,1010.04
2022-08-14T01:53:23.936Z,1010.04
2022-08-14T01:54:23.946Z,1010.03
2022-08-14T01:55:23.947Z,1010.07
2022-08-14T01:56:23.951Z,1010.01
2022-08-14T01:57:23.961Z,1010.00
2022-08-14T01:58:28.958Z,1010.05
2022-08-14T01:59:23.985Z,1010.02
2022-08-14T02:00:23.965Z,1010.01
2022-08-14T02:01:26.450Z,1009.98
2022-08-14T02:02:23.981Z,1009.99
2022-08-14T02:03:23.969Z,1009.99
2022-08-14T02:04:54.651Z,1009.97
2022-08-14T02:05:23.987Z,1009.96
2022-08-14T02:06:33.454Z,1010.01
2022-08-14T02:07:27.244Z,1009.94
2022-08-14T02:08:35.283Z,1009.96
2022-08-14T02:09:23.992Z,1009.95
2022-08-14T02:10:27.152Z,1009.98
2022-08-14T02:11:24.206Z,1009.99
2022-08-14T02:12:26.553Z,1009.91
2022-08-14T02:13:24.013Z,1009.92
2022-08-14T02:14:31.398Z,1009.95
2022-08-14T02:15:24.050Z,1009.92
2022-08-14T02:16:24.020Z,1009.90
2022-08-14T02:17:24.080Z,1009.93
2022-08-14T02:18:24.028Z,1009.87
2022-08-14T02:19:24.020Z,1009.91
2022-08-14T02:20:24.103Z,1009.86
2022-08-14T02:21:24.033Z,1009.88
2022-08-14T02:22:32.365Z,1009.83
2022-08-14T02:23:30.517Z,1009.88
2022-08-14T02:24:39.495Z,1009.86
2022-08-14T02:25:24.041Z,1009.90
2022-08-14T02:26:29.583Z,1009.86
2022-08-14T02:28:25.301Z,1009.81
2022-08-14T02:28:57.317Z,1009.82
2022-08-14T02:29:24.071Z,1009.85
2022-08-14T02:30:24.100Z,1009.83
2022-08-14T02:31:28.646Z,1009.85
2022-08-14T02:32:30.597Z,1009.83
2022-08-14T02:33:24.096Z,1009.84
2022-08-14T02:34:27.552Z,1009.84
2022-08-14T02:35:26.556Z,1009.82
2022-08-14T02:37:04.109Z,1009.78
2022-08-14T02:37:24.097Z,1009.79
2022-08-14T02:38:30.299Z,1009.78
2022-08-14T02:39:24.118Z,1009.78
2022-08-14T02:40:32.284Z,1009.76
2022-08-14T02:41:27.317Z,1009.80
2022-08-14T02:42:47.282Z,1009.72
2022-08-14T02:43:24.109Z,1009.73
2022-08-14T02:44:29.779Z,1009.75
2022-08-14T02:45:24.112Z,1009.77
2022-08-14T02:46:26.969Z,1009.76
2022-08-14T02:47:24.117Z,1009.76
2022-08-14T02:49:05.285Z,1009.76
2022-08-14T02:49:25.342Z,1009.74
2022-08-14T02:50:26.995Z,1009.77
2022-08-14T02:51:24.140Z,1009.73
2022-08-14T02:52:56.190Z,1009.75
2022-08-14T02:53:24.137Z,1009.70
2022-08-14T02:54:24.141Z,1009.66
2022-08-14T02:55:24.155Z,1009.67
2022-08-14T02:56:30.582Z,1009.66
2022-08-14T02:57:39.219Z,1009.64
2022-08-14T02:58:30.326Z,1009.60
2022-08-14T02:59:24.151Z,1009.61
2022-08-14T03:00:24.161Z,1009.64
2022-08-14T03:01:24.284Z,1009.60
2022-08-14T03:02:48.574Z,1009.57
2022-08-14T03:03:24.173Z,1009.61
2022-08-14T03:04:25.224Z,1009.57
2022-08-14T03:05:24.185Z,1009.54
2022-08-14T03:06:35.172Z,1009.52
2022-08-14T03:07:24.211Z,1009.55
2022-08-14T03:08:24.195Z,1009.56
2022-08-14T03:09:24.185Z,1009.52
2022-08-14T03:10:28.260Z,1009.52
2022-08-14T03:11:24.194Z,1009.52
2022-08-14T03:12:31.825Z,1009.49
2022-08-14T03:13:24.207Z,1009.51
2022-08-14T03:14:25.091Z,1009.52
2022-08-14T03:15:24.209Z,1009.53
2022-08-14T03:16:26.928Z,1009.51
2022-08-14T03:17:24.221Z,1009.57
2022-08-14T03:18:31.679Z,1009.54
2022-08-14T03:19:24.273Z,1009.56
2022-08-14T03:20:24.233Z,1009.55
2022-08-14T03:21:24.229Z,1009.55
2022-08-14T03:22:24.255Z,1009.56
2022-08-14T03:23:24.233Z,1009.54
2022-08-14T03:24:24.235Z,1009.55
2022-08-14T03:25:24.253Z,1009.56
2022-08-14T03:26:30.256Z,1009.54
2022-08-14T03:27:26.493Z,1009.55
2022-08-14T03:28:32.919Z,1009.50
2022-08-14T03:29:24.567Z,1009.47
2022-08-14T03:30:24.250Z,1009.50
2022-08-14T03:31:27.865Z,1009.50
2022-08-14T03:32:30.289Z,1009.46
2022-08-14T03:33:24.274Z,1009.52
2022-08-14T03:34:52.636Z,1009.51
2022-08-14T03:35:24.280Z,1009.48
2022-08-14T03:37:37.888Z,1009.50
2022-08-14T03:37:39.445Z,1009.50
2022-08-14T03:39:12.781Z,1009.48
2022-08-14T03:39:24.483Z,1009.51
2022-08-14T03:40:24.352Z,1009.54
2022-08-14T03:41:24.313Z,1009.54
2022-08-14T03:42:24.307Z,1009.50
2022-08-14T03:43:24.351Z,1009.50
2022-08-14T03:45:26.383Z,1009.49
2022-08-14T03:45:33.645Z,1009.47
2022-08-14T03:46:51.885Z,1009.52
2022-08-14T03:47:24.314Z,1009.48
2022-08-14T03:48:30.295Z,1009.51
2022-08-14T03:49:28.518Z,1009.50
2022-08-14T03:50:27.927Z,1009.50
2022-08-14T03:51:24.326Z,1009.45
2022-08-14T03:52:40.585Z,1009.44
2022-08-14T03:53:24.356Z,1009.46
2022-08-14T03:54:24.329Z,1009.45
2022-08-14T03:55:24.336Z,1009.45
2022-08-14T03:56:24.343Z,1009.45
2022-08-14T03:57:24.347Z,1009.45
2022-08-14T03:58:36.194Z,1009.41
2022-08-14T03:59:24.346Z,1009.43
2022-08-14T04:00:40.377Z,1009.40
2022-08-14T04:01:24.419Z,1009.38
2022-08-14T04:02:32.923Z,1009.38
2022-08-14T04:03:24.512Z,1009.35
2022-08-14T04:04:24.373Z,1009.36
2022-08-14T04:05:24.363Z,1009.35
2022-08-14T04:06:28.302Z,1009.36
2022-08-14T04:07:24.405Z,1009.36
2022-08-14T04:08:30.640Z,1009.33
2022-08-14T04:09:24.389Z,1009.31
2022-08-14T04:10:26.422Z,1009.29
2022-08-14T04:11:24.379Z,1009.26
2022-08-14T04:12:26.654Z,1009.24
2022-08-14T04:13:24.393Z,1009.26
2022-08-14T04:14:24.394Z,1009.26
2022-08-14T04:15:24.399Z,1009.25
2022-08-14T04:16:24.403Z,1009.29
2022-08-14T04:17:24.411Z,1009.31
2022-08-14T04:18:24.419Z,1009.34
2022-08-14T04:19:24.746Z,1009.35
2022-08-14T04:20:25.694Z,1009.32
2022-08-14T04:21:24.416Z,1009.28
2022-08-14T04:22:24.421Z,1009.28
2022-08-14T04:23:29.699Z,1009.27
2022-08-14T04:24:25.892Z,1009.29
2022-08-14T04:25:24.434Z,1009.29
2022-08-14T04:26:27.127Z,1009.22
2022-08-14T04:27:24.437Z,1009.32
2022-08-14T04:29:02.128Z,1009.30
2022-08-14T04:29:24.440Z,1009.32
2022-08-14T04:30:24.886Z,1009.31
2022-08-14T04:32:56.288Z,1009.32
2022-08-14T04:33:00.015Z,1009.27
2022-08-14T04:33:24.757Z,1009.29
2022-08-14T04:34:27.882Z,1009.25
2022-08-14T04:35:24.463Z,1009.28
2022-08-14T04:36:24.468Z,1009.21
2022-08-14T04:37:25.256Z,1009.27
2022-08-14T04:38:37.012Z,1009.20
2022-08-14T04:39:24.490Z,1009.22
2022-08-14T04:40:24.582Z,1009.23
2022-08-14T04:41:24.476Z,1009.21
2022-08-14T04:42:24.490Z,1009.21
2022-08-14T04:43:24.540Z,1009.22
2022-08-14T04:44:36.212Z,1009.26
2022-08-14T04:45:24.506Z,1009.23
2022-08-14T04:46:56.548Z,1009.24
2022-08-14T04:47:24.502Z,1009.27
2022-08-14T04:48:38.781Z,1009.28
2022-08-14T04:49:24.502Z,1009.29
2022-08-14T04:50:37.966Z,1009.25
2022-08-14T04:51:24.510Z,1009.28
2022-08-14T04:52:24.673Z,1009.30
2022-08-14T04:53:26.219Z,1009.26
2022-08-14T04:54:24.651Z,1009.30
2022-08-14T04:55:24.528Z,1009.31
2022-08-14T04:56:33.946Z,1009.29
2022-08-14T04:57:24.552Z,1009.28
2022-08-14T04:58:32.203Z,1009.25
2022-08-14T04:59:24.548Z,1009.26
2022-08-14T05:00:24.857Z,1009.25
2022-08-14T05:01:24.612Z,1009.24
2022-08-14T05:02:24.633Z,1009.27
2022-08-14T05:03:25.254Z,1009.28
2022-08-14T05:04:24.561Z,1009.26
2022-08-14T05:05:24.563Z,1009.24
2022-08-14T05:06:38.937Z,1009.24
2022-08-14T05:07:46.850Z,1009.25
2022-08-14T05:08:31.906Z,1009.23
2022-08-14T05:09:24.576Z,1009.25
2022-08-14T05:10:24.642Z,1009.22
2022-08-14T05:11:24.582Z,1009.27
2022-08-14T05:13:11.273Z,1009.26
2022-08-14T05:13:30.225Z,1009.27
2022-08-14T05:14:46.134Z,1009.24
2022-08-14T05:15:24.632Z,1009.25
2022-08-14T05:16:24.601Z,1009.26
2022-08-14T05:17:24.652Z,1009.25
2022-08-14T05:19:16.903Z,1009.23
2022-08-14T05:19:26.790Z,1009.17
2022-08-14T05:21:58.098Z,1009.22
2022-08-14T05:21:59.972Z,1009.19
2022-08-14T05:22:24.624Z,1009.18
2022-08-14T05:23:24.627Z,1009.20
2022-08-14T05:24:24.625Z,1009.19
2022-08-14T05:25:24.633Z,1009.20
2022-08-14T05:26:24.650Z,1009.20
2022-08-14T05:27:24.646Z,1009.21
2022-08-14T05:28:24.664Z,1009.19
2022-08-14T05:29:24.652Z,1009.18
2022-08-14T05:30:24.649Z,1009.16
2022-08-14T05:31:24.778Z,1009.19
2022-08-14T05:32:27.653Z,1009.15
2022-08-14T05:33:24.663Z,1009.19
2022-08-14T05:34:28.770Z,1009.15
2022-08-14T05:35:24.673Z,1009.14
2022-08-14T05:36:24.686Z,1009.09
2022-08-14T05:37:24.695Z,1009.05
2022-08-14T05:38:31.052Z,1009.05
2022-08-14T05:39:24.724Z,1009.02
2022-08-14T05:40:24.738Z,1009.02
2022-08-14T05:41:51.055Z,1009.01
2022-08-14T05:42:29.328Z,1008.95
2022-08-14T05:43:24.737Z,1008.97
2022-08-14T05:44:29.626Z,1008.89
2022-08-14T05:45:24.711Z,1008.98
2022-08-14T05:46:24.717Z,1008.95
2022-08-14T05:47:33.765Z,1008.94
2022-08-14T05:48:33.431Z,1008.93
2022-08-14T05:49:32.814Z,1008.96
2022-08-14T05:50:24.735Z,1008.97
2022-08-14T05:51:24.742Z,1008.92
2022-08-14T05:52:38.309Z,1009.00
2022-08-14T05:53:24.751Z,1008.99
2022-08-14T05:54:26.965Z,1008.96
2022-08-14T05:55:24.770Z,1008.91
2022-08-14T05:56:24.771Z,1008.87
2022-08-14T05:57:24.784Z,1008.95
2022-08-14T05:58:33.772Z,1009.06
2022-08-14T05:59:36.502Z,1009.17
2022-08-14T06:00:29.915Z,1009.10
2022-08-14T06:01:24.838Z,1009.07
2022-08-14T06:02:24.809Z,1009.17
2022-08-14T06:03:24.825Z,1009.19
2022-08-14T06:04:24.819Z,1009.24
2022-08-14T06:05:24.840Z,1009.23
2022-08-14T06:06:24.848Z,1009.29
2022-08-14T06:07:24.849Z,1009.25
2022-08-14T06:08:36.115Z,1009.24
2022-08-14T06:09:24.867Z,1009.26
2022-08-14T06:10:25.273Z,1009.25
2022-08-14T06:11:30.683Z,1009.32
2022-08-14T06:12:55.156Z,1009.31
2022-08-14T06:13:31.621Z,1009.30
2022-08-14T06:14:24.937Z,1009.29
2022-08-14T06:15:29.382Z,1009.32
2022-08-14T06:16:24.928Z,1009.28
2022-08-14T06:17:26.101Z,1009.15
2022-08-14T06:18:25.135Z,1009.02
2022-08-14T06:19:24.963Z,1009.00
2022-08-14T06:20:25.000Z,1008.96
2022-08-14T06:21:25.004Z,1008.97
2022-08-14T06:22:25.056Z,1008.97
2022-08-14T06:23:25.073Z,1008.94
2022-08-14T06:24:25.060Z,1008.93
2022-08-14T06:25:25.163Z,1008.90
2022-08-14T06:26:30.565Z,1008.89
2022-08-14T06:27:25.072Z,1008.91
2022-08-14T06:28:27.356Z,1008.86
2022-08-14T06:29:25.096Z,1008.87
2022-08-14T06:30:30.451Z,1008.84
2022-08-14T06:31:25.136Z,1008.85
2022-08-14T06:32:38.114Z,1008.89
2022-08-14T06:33:30.330Z,1008.88
2022-08-14T06:35:11.553Z,1008.87
2022-08-14T06:35:25.165Z,1008.88
2022-08-14T06:36:25.185Z,1008.88
2022-08-14T06:37:25.198Z,1008.88
2022-08-14T06:38:25.212Z,1008.85
2022-08-14T06:39:36.954Z,1008.90
2022-08-14T06:40:27.250Z,1008.87
2022-08-14T06:41:58.145Z,1008.86
2022-08-14T06:42:32.833Z,1008.86
2022-08-14T06:43:30.171Z,1008.89
2022-08-14T06:44:30.554Z,1008.92
2022-08-14T06:45:26.285Z,1008.91
2022-08-14T06:46:34.335Z,1008.96
2022-08-14T06:47:25.327Z,1008.92
2022-08-14T06:48:25.346Z,1008.97
2022-08-14T06:49:25.358Z,1009.03
2022-08-14T06:50:28.119Z,1008.99
2022-08-14T06:51:25.398Z,1008.99
2022-08-14T06:52:25.402Z,1009.00
2022-08-14T06:53:27.511Z,1009.04
2022-08-14T06:54:31.608Z,1009.03
2022-08-14T06:55:27.912Z,1009.05
2022-08-14T06:56:25.477Z,1009.00
2022-08-14T06:57:25.480Z,1009.02
2022-08-14T06:58:29.186Z,1008.98
2022-08-14T06:59:25.497Z,1009.01
2022-08-14T07:00:27.169Z,1008.95
2022-08-14T07:01:27.564Z,1008.93
2022-08-14T07:02:25.602Z,1008.92
2022-08-14T07:03:25.713Z,1008.97
2022-08-14T07:04:25.559Z,1008.95
2022-08-14T07:05:25.568Z,1008.92
2022-08-14T07:06:46.795Z,1008.93
2022-08-14T07:07:25.590Z,1008.89
2022-08-14T07:08:25.748Z,1008.85
2022-08-14T07:09:25.623Z,1008.87
2022-08-14T07:10:25.719Z,1008.78
2022-08-14T07:11:25.672Z,1008.81
2022-08-14T07:12:55.110Z,1008.76
2022-08-14T07:13:25.706Z,1008.78
2022-08-14T07:14:25.690Z,1008.74
2022-08-14T07:15:25.698Z,1008.72
2022-08-14T07:16:27.432Z,1008.79
2022-08-14T07:17:25.724Z,1008.78
2022-08-14T07:18:25.736Z,1008.68
2022-08-14T07:19:25.760Z,1008.70
2022-08-14T07:20:30.821Z,1008.74
2022-08-14T07:21:25.788Z,1008.73
2022-08-14T07:22:33.114Z,1008.73
2022-08-14T07:23:25.858Z,1008.72
2022-08-14T07:24:31.142Z,1008.74
2022-08-14T07:25:30.410Z,1008.74
2022-08-14T07:26:25.842Z,1008.73
2022-08-14T07:27:25.866Z,1008.71
2022-08-14T07:28:25.861Z,1008.70
2022-08-14T07:29:28.680Z,1008.68
2022-08-14T07:30:34.514Z,1008.73
2022-08-14T07:31:25.904Z,1008.64
2022-08-14T07:32:34.165Z,1008.67
2022-08-14T07:33:29.856Z,1008.68
2022-08-14T07:34:35.944Z,1008.68
2022-08-14T07:35:25.965Z,1008.70
2022-08-14T07:36:27.513Z,1008.73
2022-08-14T07:37:26.000Z,1008.71
2022-08-14T07:38:26.016Z,1008.71
2022-08-14T07:39:27.701Z,1008.71
2022-08-14T07:40:27.791Z,1008.71
2022-08-14T07:41:33.977Z,1008.71
2022-08-14T07:42:26.064Z,1008.70
2022-08-14T07:43:26.093Z,1008.70
2022-08-14T07:44:32.162Z,1008.67
2022-08-14T07:45:26.118Z,1008.61
2022-08-14T07:46:29.279Z,1008.61
2022-08-14T07:47:26.139Z,1008.58
2022-08-14T07:48:26.172Z,1008.60
2022-08-14T07:49:26.209Z,1008.56
2022-08-14T07:50:26.192Z,1008.61
2022-08-14T07:51:26.229Z,1008.60
2022-08-14T07:52:30.249Z,1008.57
2022-08-14T07:53:26.223Z,1008.54
2022-08-14T07:54:29.826Z,1008.53
2022-08-14T07:55:26.269Z,1008.54
2022-08-14T07:56:47.460Z,1008.50
2022-08-14T07:57:26.306Z,1008.55
2022-08-14T07:58:33.831Z,1008.51
2022-08-14T07:59:41.490Z,1008.52
2022-08-14T08:00:31.417Z,1008.47
2022-08-14T08:01:26.352Z,1008.53
2022-08-14T08:02:26.363Z,1008.52
2022-08-14T08:03:26.416Z,1008.52
2022-08-14T08:04:27.051Z,1008.51
2022-08-14T08:05:26.404Z,1008.50
2022-08-14T08:06:26.628Z,1008.49
2022-08-14T08:07:29.664Z,1008.46
2022-08-14T08:08:26.812Z,1008.50
2022-08-14T08:09:31.876Z,1008.49
2022-08-14T08:10:31.118Z,1008.44
2022-08-14T08:11:26.517Z,1008.47
2022-08-14T08:12:28.086Z,1008.47
2022-08-14T08:13:28.684Z,1008.42
2022-08-14T08:14:26.938Z,1008.43
2022-08-14T08:15:26.563Z,1008.41
2022-08-14T08:16:26.573Z,1008.39
2022-08-14T08:17:26.586Z,1008.41
2022-08-14T08:18:29.312Z,1008.37
2022-08-14T08:19:26.610Z,1008.38
2022-08-14T08:20:27.392Z,1008.38
2022-08-14T08:21:27.140Z,1008.34
2022-08-14T08:22:27.195Z,1008.35
2022-08-14T08:23:30.201Z,1008.36
2022-08-14T08:24:26.684Z,1008.32
2022-08-14T08:25:26.718Z,1008.29
2022-08-14T08:26:26.717Z,1008.33
2022-08-14T08:27:26.755Z,1008.27
2022-08-14T08:28:27.274Z,1008.31
2022-08-14T08:29:28.676Z,1008.29
2022-08-14T08:30:27.163Z,1008.31
2022-08-14T08:31:32.604Z,1008.28
2022-08-14T08:32:30.018Z,1008.25
2022-08-14T08:33:27.138Z,1008.24
2022-08-14T08:34:26.818Z,1008.21
2022-08-14T08:35:46.312Z,1008.25
2022-08-14T08:36:29.888Z,1008.27
2022-08-14T08:37:30.716Z,1008.29
2022-08-14T08:39:17.791Z,1008.25
2022-08-14T08:39:30.964Z,1008.20
2022-08-14T08:40:31.441Z,1008.30
2022-08-14T08:41:26.922Z,1008.22
2022-08-14T08:42:31.241Z,1008.22
2022-08-14T08:43:26.919Z,1008.21
2022-08-14T08:44:31.815Z,1008.21
2022-08-14T08:45:27.809Z,1008.19
2022-08-14T08:46:26.970Z,1008.12
2022-08-14T08:47:26.970Z,1008.08
2022-08-14T08:48:31.816Z,1008.06
2022-08-14T08:49:26.990Z,1008.07
2022-08-14T08:50:31.635Z,1008.07
2022-08-14T08:51:30.882Z,1008.04
2022-08-14T08:52:28.992Z,1008.03
2022-08-14T08:53:27.057Z,1008.01
2022-08-14T08:54:31.552Z,1008.02
2022-08-14T08:55:27.065Z,1008.01
2022-08-14T08:56:30.216Z,1007.94
2022-08-14T08:57:27.070Z,1008.04
2022-08-14T08:58:27.081Z,1008.02
2022-08-14T08:59:31.550Z,1008.02
2022-08-14T09:00:27.286Z,1008.05
2022-08-14T09:01:27.195Z,1007.98
2022-08-14T09:02:27.492Z,1008.00
2022-08-14T09:03:27.605Z,1007.99
2022-08-14T09:04:27.153Z,1008.00
2022-08-14T09:05:27.213Z,1007.97
2022-08-14T09:07:00.544Z,1007.98
2022-08-14T09:07:27.283Z,1007.98
2022-08-14T09:08:31.251Z,1007.96
2022-08-14T09:09:33.084Z,1007.92
2022-08-14T09:10:27.536Z,1007.91
2022-08-14T09:11:27.215Z,1007.92
2022-08-14T09:12:27.211Z,1007.87
2022-08-14T09:13:27.244Z,1007.83
2022-08-14T09:14:27.262Z,1007.86
2022-08-14T09:15:27.243Z,1007.87
2022-08-14T09:16:27.252Z,1007.88
2022-08-14T09:17:27.307Z,1007.83
2022-08-14T09:18:27.288Z,1007.80
2022-08-14T09:19:27.309Z,1007.78
2022-08-14T09:20:30.696Z,1007.74
2022-08-14T09:21:31.122Z,1007.74
2022-08-14T09:22:35.052Z,1007.74
2022-08-14T09:23:34.664Z,1007.73
2022-08-14T09:24:31.620Z,1007.74
2022-08-14T09:26:01.421Z,1007.76
2022-08-14T09:26:28.596Z,1007.78
2022-08-14T09:27:27.358Z,1007.69
2022-08-14T09:28:27.399Z,1007.73
2022-08-14T09:29:28.652Z,1007.73
2022-08-14T09:30:32.560Z,1007.72
2022-08-14T09:31:27.393Z,1007.71
2022-08-14T09:32:59.421Z,1007.71
2022-08-14T09:33:27.433Z,1007.75
2022-08-14T09:34:28.378Z,1007.76
2022-08-14T09:35:27.704Z,1007.74
2022-08-14T09:36:27.484Z,1007.74
2022-08-14T09:37:27.507Z,1007.70
2022-08-14T09:38:27.561Z,1007.72
2022-08-14T09:39:27.566Z,1007.65
2022-08-14T09:40:29.401Z,1007.66
2022-08-14T09:41:27.515Z,1007.62
2022-08-14T09:42:33.279Z,1007.67
2022-08-14T09:43:27.519Z,1007.64
2022-08-14T09:44:27.550Z,1007.62
2022-08-14T09:45:30.397Z,1007.62
2022-08-14T09:46:27.531Z,1007.59
2022-08-14T09:47:27.540Z,1007.59
2022-08-14T09:48:31.080Z,1007.57
2022-08-14T09:49:27.575Z,1007.57
2022-08-14T09:50:27.575Z,1007.55
2022-08-14T09:51:32.585Z,1007.54
2022-08-14T09:52:34.134Z,1007.55
2022-08-14T09:54:13.088Z,1007.53
2022-08-14T09:54:27.621Z,1007.55
2022-08-14T09:55:27.798Z,1007.53
2022-08-14T09:56:30.860Z,1007.52
2022-08-14T09:57:28.916Z,1007.51
2022-08-14T09:58:27.638Z,1007.49
2022-08-14T09:59:28.380Z,1007.47
2022-08-14T10:00:29.412Z,1007.48
2022-08-14T10:01:27.662Z,1007.45
2022-08-14T10:02:27.929Z,1007.43
2022-08-14T10:03:28.720Z,1007.41
2022-08-14T10:04:34.356Z,1007.36
2022-08-14T10:05:27.680Z,1007.36
2022-08-14T10:06:28.331Z,1007.32
2022-08-14T10:07:27.707Z,1007.31
2022-08-14T10:08:27.708Z,1007.35
2022-08-14T10:09:27.716Z,1007.29
2022-08-14T10:10:27.723Z,1007.27
2022-08-14T10:11:34.803Z,1007.33
2022-08-14T10:12:29.176Z,1007.27
2022-08-14T10:13:27.746Z,1007.26
2022-08-14T10:14:34.758Z,1007.22
2022-08-14T10:15:29.971Z,1007.23
2022-08-14T10:16:33.342Z,1007.20
2022-08-14T10:17:27.785Z,1007.19
2022-08-14T10:18:27.784Z,1007.19
2022-08-14T10:19:27.788Z,1007.12
2022-08-14T10:20:39.810Z,1007.05
2022-08-14T10:21:27.810Z,1007.06
2022-08-14T10:23:12.446Z,1007.05
2022-08-14T10:23:30.112Z,1007.12
2022-08-14T10:24:31.241Z,1007.04
2022-08-14T10:25:27.843Z,1007.02
2022-08-14T10:26:28.416Z,1007.07
2022-08-14T10:27:28.074Z,1007.02
2022-08-14T10:29:03.462Z,1006.93
2022-08-14T10:29:27.884Z,1007.01
2022-08-14T10:30:27.903Z,1007.01
2022-08-14T10:31:27.895Z,1007.00
2022-08-14T10:32:36.114Z,1006.96
2022-08-14T10:33:27.908Z,1006.98
2022-08-14T10:34:33.318Z,1006.91
2022-08-14T10:35:31.064Z,1006.91
2022-08-14T10:36:35.162Z,1006.89
2022-08-14T10:37:28.117Z,1006.84
2022-08-14T10:38:27.962Z,1006.81
2022-08-14T10:39:27.993Z,1006.79
2022-08-14T10:40:37.530Z,1006.75
2022-08-14T10:41:31.926Z,1006.74
2022-08-14T10:42:28.049Z,1006.74
2022-08-14T10:43:31.791Z,1006.65
2022-08-14T10:44:29.876Z,1006.66
2022-08-14T10:45:28.004Z,1006.70
2022-08-14T10:47:40.918Z,1006.67
2022-08-14T10:47:41.288Z,1006.61
2022-08-14T10:48:37.055Z,1006.64
2022-08-14T10:49:28.063Z,1006.59
2022-08-14T10:50:28.056Z,1006.56
2022-08-14T10:51:30.319Z,1006.52
2022-08-14T10:52:28.094Z,1006.55
2022-08-14T10:53:28.070Z,1006.56
2022-08-14T10:54:39.823Z,1006.52
2022-08-14T10:55:28.149Z,1006.53
2022-08-14T10:56:32.210Z,1006.47
2022-08-14T10:57:28.133Z,1006.49
2022-08-14T10:58:28.174Z,1006.43
2022-08-14T10:59:30.960Z,1006.51
2022-08-14T11:00:30.288Z,1006.46
2022-08-14T11:01:28.185Z,1006.44
2022-08-14T11:02:36.180Z,1006.43
2022-08-14T11:03:55.242Z,1006.45
2022-08-14T11:04:28.219Z,1006.51
2022-08-14T11:05:28.543Z,1006.47
2022-08-14T11:06:28.167Z,1006.49
2022-08-14T11:07:28.179Z,1006.50
2022-08-14T11:08:28.184Z,1006.43
2022-08-14T11:09:31.629Z,1006.49
2022-08-14T11:10:28.209Z,1006.42
2022-08-14T11:11:35.850Z,1006.41
2022-08-14T11:12:34.471Z,1006.34
2022-08-14T11:13:29.939Z,1006.37
2022-08-14T11:14:28.237Z,1006.36
2022-08-14T11:15:28.245Z,1006.38
2022-08-14T11:16:28.733Z,1006.42
2022-08-14T11:17:28.261Z,1006.42
2022-08-14T11:18:30.273Z,1006.38
2022-08-14T11:19:28.311Z,1006.36
2022-08-14T11:20:28.289Z,1006.41
2022-08-14T11:21:30.151Z,1006.33
2022-08-14T11:23:03.018Z,1006.37
2022-08-14T11:23:28.334Z,1006.35
2022-08-14T11:24:54.119Z,1006.39
2022-08-14T11:25:41.327Z,1006.33
2022-08-14T11:26:30.140Z,1006.36
2022-08-14T11:27:33.367Z,1006.35
2022-08-14T11:28:46.372Z,1006.33
2022-08-14T11:29:28.353Z,1006.33
2022-08-14T11:30:51.714Z,1006.33
2022-08-14T11:31:35.622Z,1006.33
2022-08-14T11:32:28.381Z,1006.30
2022-08-14T11:33:28.381Z,1006.30
2022-08-14T11:34:32.074Z,1006.30
2022-08-14T11:35:44.043Z,1006.31
2022-08-14T11:37:02.773Z,1006.28
2022-08-14T11:37:36.948Z,1006.29
2022-08-14T11:38:28.432Z,1006.32
2022-08-14T11:39:34.609Z,1006.26
2022-08-14T11:40:29.558Z,1006.31
2022-08-14T11:41:28.460Z,1006.28
2022-08-14T11:43:08.096Z,1006.24
2022-08-14T11:43:29.472Z,1006.30
2022-08-14T11:44:45.540Z,1006.32
2022-08-14T11:45:29.891Z,1006.31
2022-08-14T11:46:30.563Z,1006.25
2022-08-14T11:47:34.746Z,1006.24
2022-08-14T11:49:02.048Z,1006.22
2022-08-14T11:49:34.121Z,1006.13
2022-08-14T11:50:36.770Z,1006.20
2022-08-14T11:51:30.715Z,1006.19
2022-08-14T11:52:28.569Z,1006.21
2022-08-14T11:53:28.542Z,1006.20
2022-08-14T11:54:34.197Z,1006.22
2022-08-14T11:55:28.562Z,1006.17
2022-08-14T11:56:29.688Z,1006.12
2022-08-14T11:57:28.563Z,1006.12
2022-08-14T11:58:28.701Z,1006.15
2022-08-14T11:59:32.814Z,1006.13
2022-08-14T12:00:31.609Z,1006.13
2022-08-14T12:01:28.594Z,1006.11
2022-08-14T12:02:39.025Z,1006.15
2022-08-14T12:03:45.939Z,1006.13
2022-08-14T12:04:33.063Z,1006.10
2022-08-14T12:05:28.627Z,1006.15